Terminal Aerodrome Forecast
Issued by NWS

Home | Current Version | Previous Version | Text Only | Print | Product List | Glossary On
Versions: 1 2 3 4 5 6 7 8 9 10 11 12 13 14 15
000
FTUS41 KCAR 240500 RRA
TAFBHB
TAF
KBHB 240559Z 2406/2506 34015G25KT 6SM -RA BKN025 OVC035
     FM241000 34015G25KT P6SM SCT025 OVC035
     FM241500 34018G28KT P6SM BKN035 OVC080
     FM250000 35012G20KT P6SM SCT100
      AMD LTD TO CLD VIS AND WIND=

USA.gov is the U.S. government's official web portal to all federal, state and local government web resources and services.